Time;durP1;ratioP1;P1;durP2;ratioP2;P2;SDS_P1;SDS_P2;PMS_P1;PMS_P2;Temp;Humidity;BMP_temperature;BMP_pressure;BME280_temperature;BME280_humidity;BME280_pressure;Samples;Min_cycle;Max_cycle;Signal;HPM_P1;HPM_P2
2022/01/19 00:01:38;;;;;;;20.40;12.00;;;;;;;-7.60;78.20;98702.80;110398;1244;58870;-67
2022/01/19 00:04:08;;;;;;;14.20;11.10;;;;;;;-7.77;78.09;98702.80;110413;1244;70412;-64
2022/01/19 00:06:37;;;;;;;31.10;18.60;;;;;;;-7.93;78.33;98707.54;110397;1244;68633;-66
2022/01/19 00:09:07;;;;;;;38.40;22.50;;;;;;;-8.19;78.27;98730.67;110389;1244;68713;-69
2022/01/19 00:11:37;;;;;;;34.60;18.40;;;;;;;-8.36;78.35;98729.29;110428;1245;58897;-69
2022/01/19 00:14:06;;;;;;;21.40;12.60;;;;;;;-8.47;78.95;98731.41;110601;1244;58802;-66
2022/01/19 00:16:36;;;;;;;36.10;18.50;;;;;;;-8.56;79.89;98738.13;110267;1244;69930;-66
2022/01/19 00:19:05;;;;;;;35.90;19.60;;;;;;;-8.63;80.47;98746.73;110411;1245;68708;-66
2022/01/19 00:21:35;;;;;;;30.00;17.10;;;;;;;-8.68;80.50;98751.19;110357;1244;67770;-67
2022/01/19 00:24:06;;;;;;;28.20;16.10;;;;;;;-8.76;80.15;98745.60;110430;1245;58870;-66
2022/01/19 00:26:36;;;;;;;20.90;12.00;;;;;;;-8.81;80.13;98746.49;110375;1244;58947;-65
2022/01/19 00:29:06;;;;;;;23.60;13.40;;;;;;;-8.84;80.69;98756.20;110109;1244;70704;-67
2022/01/19 00:31:36;;;;;;;25.20;14.40;;;;;;;-8.86;80.63;98765.13;110107;1247;68769;-66
2022/01/19 00:34:05;;;;;;;14.00;8.00;;;;;;;-8.86;80.83;98768.00;110380;1244;68747;-64
2022/01/19 00:36:35;;;;;;;9.10;6.50;;;;;;;-8.84;80.76;98777.98;110398;1244;58915;-65
2022/01/19 00:39:05;;;;;;;14.50;8.80;;;;;;;-8.83;80.45;98789.36;110252;1245;58952;-67
2022/01/19 00:41:35;;;;;;;10.00;5.90;;;;;;;-8.81;80.46;98787.21;110123;1247;70776;-67
2022/01/19 00:44:05;;;;;;;11.80;7.30;;;;;;;-8.79;80.72;98784.37;110079;1245;68485;-65
2022/01/19 00:46:35;;;;;;;12.90;7.10;;;;;;;-8.77;80.75;98795.91;110439;1244;68855;-63
2022/01/19 00:49:05;;;;;;;15.00;7.80;;;;;;;-8.75;80.72;98802.73;110252;1244;58936;-64
2022/01/19 00:51:35;;;;;;;20.00;11.00;;;;;;;-8.74;80.74;98801.58;110444;1244;58865;-65
2022/01/19 00:54:05;;;;;;;21.10;13.30;;;;;;;-8.77;81.13;98800.31;110150;1244;70095;-66
2022/01/19 00:56:35;;;;;;;15.90;10.50;;;;;;;-8.81;80.99;98804.27;110111;1247;68165;-63
2022/01/19 00:59:04;;;;;;;;;;;;;;;-8.86;80.89;98801.77;110476;1244;69375;-64
2022/01/19 01:01:34;;;;;;;18.40;10.60;;;;;;;-8.91;81.36;98794.36;110404;1244;58934;-64
2022/01/19 01:04:05;;;;;;;18.40;11.40;;;;;;;-8.96;81.34;98787.48;110480;1244;58938;-64
2022/01/19 01:06:34;;;;;;;19.60;11.60;;;;;;;-8.99;81.41;98788.09;110507;1244;69917;-66
2022/01/19 01:09:04;;;;;;;19.90;9.60;;;;;;;-9.02;80.86;98786.48;110126;1245;66662;-66
2022/01/19 01:11:37;;;;;;;21.70;12.30;;;;;;;-9.07;81.08;98788.36;110456;1244;68901;-64
2022/01/19 01:16:39;;;;;;;15.80;9.50;;;;;;;-9.12;81.63;98786.04;110469;1244;59649;-65
2022/01/19 01:19:11;;;;;;;22.80;10.80;;;;;;;-9.13;82.08;98789.56;110153;1245;70663;-67
2022/01/19 01:21:41;;;;;;;17.60;9.70;;;;;;;-9.13;81.73;98790.23;110149;1244;68530;-64
2022/01/19 01:24:11;;;;;;;9.50;6.10;;;;;;;-9.13;81.59;98783.30;110519;1244;68591;-66
2022/01/19 01:26:41;;;;;;;21.90;12.00;;;;;;;-9.10;81.19;98782.04;110212;1246;59702;-66
2022/01/19 01:29:13;;;;;;;17.40;11.50;;;;;;;-9.12;80.83;98785.89;110094;1247;59701;-65
2022/01/19 01:31:43;;;;;;;16.20;10.10;;;;;;;-9.17;80.72;98792.52;110388;1244;71358;-65
2022/01/19 01:34:14;;;;;;;18.50;10.90;;;;;;;-9.19;80.87;98790.75;110104;1245;67638;-66
2022/01/19 01:36:44;;;;;;;21.20;11.50;;;;;;;-9.25;80.71;98797.70;110123;1247;68945;-67
2022/01/19 01:39:13;;;;;;;16.60;10.70;;;;;;;-9.34;80.61;98793.90;110111;1247;59735;-64
2022/01/19 01:41:44;;;;;;;29.20;14.00;;;;;;;-9.42;80.64;98795.69;110103;1247;59717;-66
2022/01/19 01:44:19;;;;;;;16.50;11.00;;;;;;;-9.53;80.89;98794.53;110440;1244;70703;-66
2022/01/19 01:46:55;;;;;;;20.70;11.60;;;;;;;-9.62;80.88;98791.59;110184;1245;67909;-65
2022/01/19 01:49:39;;;;;;;18.00;8.30;;;;;;;-9.70;80.83;98792.02;110149;1247;69242;-66
2022/01/19 01:55:00;;;;;;;11.20;6.20;;;;;;;-9.83;80.70;98799.41;110096;1247;59682;-66
2022/01/19 01:57:30;;;;;;;;;;;;;;;-9.87;80.73;98800.31;110070;1247;70762;-67
2022/01/19 02:00:00;;;;;;;14.20;9.10;;;;;;;-9.90;80.85;98793.64;110151;1247;67909;-65
2022/01/19 02:02:52;;;;;;;23.00;12.40;;;;;;;-9.91;80.74;98795.77;110118;1248;68645;-67
2022/01/19 02:05:23;;;;;;;20.50;13.90;;;;;;;-9.96;81.09;98805.76;110068;1247;59725;-66
2022/01/19 02:08:10;;;;;;;21.10;12.40;;;;;;;-10.01;81.07;98804.42;110217;1244;59669;-65
2022/01/19 02:16:35;;;;;;;16.20;8.20;;;;;;;-10.09;81.91;98804.00;110293;1247;69420;-64
2022/01/19 02:22:00;;;;;;;15.40;8.90;;;;;;;-10.13;82.12;98796.80;110147;1247;59683;-64
2022/01/19 02:24:41;;;;;;;18.80;11.30;;;;;;;-10.15;82.13;98795.41;110080;1247;71560;-65
2022/01/19 02:36:36;;;;;;;19.60;10.20;;;;;;;-10.20;82.67;98797.27;110139;1246;59763;-65
2022/01/19 02:41:58;;;;;;;7.10;4.60;;;;;;;-10.20;82.46;98800.98;110229;1244;68762;-66
2022/01/19 02:44:40;;;;;;;16.70;10.10;;;;;;;-10.20;82.19;98794.91;110242;1247;68855;-66
2022/01/19 02:49:55;;;;;;;18.90;12.90;;;;;;;-10.20;83.06;98792.39;110469;1245;59733;-63
2022/01/19 02:52:25;;;;;;;16.30;10.60;;;;;;;-10.24;82.01;98791.94;110162;1247;71586;-63
2022/01/19 02:54:55;;;;;;;17.60;10.20;;;;;;;-10.33;81.78;98791.52;110451;1245;68577;-64
2022/01/19 02:57:26;;;;;;;18.90;10.70;;;;;;;-10.39;81.64;98783.39;110560;1244;69384;-64
2022/01/19 03:10:55;;;;;;;12.10;7.00;;;;;;;-10.62;80.88;98779.92;110437;1245;69429;-64
2022/01/19 03:13:24;;;;;;;13.20;8.10;;;;;;;-10.58;81.34;98784.96;110449;1247;59725;-65
2022/01/19 03:15:55;;;;;;;15.90;8.20;;;;;;;-10.55;81.71;98788.93;110134;1247;59661;-65
2022/01/19 03:18:25;;;;;;;;;;;;;;;-10.54;81.66;98790.80;110157;1248;71572;-65
2022/01/19 03:20:55;;;;;;;14.70;8.20;;;;;;;-10.56;81.33;98788.57;110284;1245;67894;-67
2022/01/19 03:23:25;;;;;;;;;;;;;;;-10.60;81.09;98787.78;110070;1247;69239;-66
2022/01/19 03:25:57;;;;;;;9.80;6.30;;;;;;;-10.64;80.93;98783.23;110461;1245;59658;-66
2022/01/19 03:28:29;;;;;;;12.40;8.30;;;;;;;-10.72;81.26;98785.02;110446;1245;59590;-67
2022/01/19 03:30:59;;;;;;;23.00;13.10;;;;;;;-10.79;81.55;98790.70;110429;1245;71380;-65
2022/01/19 03:33:31;;;;;;;24.30;13.50;;;;;;;-10.87;81.12;98791.94;110158;1248;68449;-65
2022/01/19 03:36:01;;;;;;;11.40;7.30;;;;;;;-10.94;80.92;98791.18;110468;1244;69402;-65
2022/01/19 03:38:31;;;;;;;19.90;10.80;;;;;;;-10.99;81.09;98795.21;110179;1247;59696;-66
2022/01/19 03:41:01;;;;;;;21.90;12.00;;;;;;;-11.07;80.96;98798.15;110076;1248;59676;-66
2022/01/19 03:43:32;;;;;;;;;;;;;;;-11.14;80.77;98806.98;110159;1248;70863;-65
2022/01/19 03:46:14;;;;;;;14.90;8.30;;;;;;;-11.18;81.27;98814.23;110379;1245;68725;-64
2022/01/19 03:48:54;;;;;;;16.10;7.70;;;;;;;-11.18;81.01;98811.90;110388;1245;68657;-63
2022/01/19 03:51:25;;;;;;;18.20;8.00;;;;;;;-11.15;81.27;98809.14;110361;1244;59754;-63
2022/01/19 03:53:55;;;;;;;19.90;10.30;;;;;;;-11.09;81.56;98802.80;110455;1247;59754;-64
2022/01/19 03:56:26;;;;;;;14.10;7.90;;;;;;;-11.06;82.44;98803.58;110453;1246;70754;-65
2022/01/19 03:58:55;;;;;;;10.00;6.00;;;;;;;-11.05;82.27;98796.52;110167;1247;67944;-65
2022/01/19 04:01:26;;;;;;;16.20;9.10;;;;;;;-11.04;81.73;98790.52;110293;1245;68730;-66
2022/01/19 04:04:16;;;;;;;26.70;12.70;;;;;;;-11.06;81.44;98790.10;110121;1247;59667;-62
2022/01/19 04:09:43;;;;;;;21.50;13.00;;;;;;;-11.20;81.35;98777.31;110432;1246;71101;-68
2022/01/19 04:12:19;;;;;;;19.40;7.30;;;;;;;-11.25;81.29;98777.14;110086;1248;68356;-65
2022/01/19 04:14:48;;;;;;;10.90;7.10;;;;;;;-11.26;81.26;98771.55;110138;1247;68674;-67
2022/01/19 04:17:19;;;;;;;16.00;8.90;;;;;;;-11.23;81.80;98764.06;110067;1247;60136;-66
2022/01/19 04:19:51;;;;;;;21.80;11.00;;;;;;;-11.20;82.05;98761.50;110096;1247;59697;-67
2022/01/19 04:22:26;;;;;;;17.20;7.90;;;;;;;-11.18;82.27;98763.27;110108;1247;70886;-65
2022/01/19 04:25:04;;;;;;;17.40;9.90;;;;;;;-11.19;82.13;98760.19;110409;1247;67805;-66
2022/01/19 04:27:34;;;;;;;21.90;11.40;;;;;;;-11.22;82.40;98765.81;110122;1248;69349;-66
2022/01/19 04:30:10;;;;;;;;;;;;;;;-11.30;81.78;98776.97;110071;1248;59736;-66
2022/01/19 04:35:34;;;;;;;16.00;10.80;;;;;;;-11.47;81.43;98772.17;110367;1247;72273;-66
2022/01/19 04:38:49;;;;;;;13.70;8.60;;;;;;;-11.51;81.48;98776.22;110110;1247;68524;-64
2022/01/19 05:01:36;;;;;;;21.50;12.00;;;;;;;-11.63;81.66;98774.80;110333;1245;69477;-65
2022/01/19 05:06:40;;;;;;;29.00;15.60;;;;;;;-11.46;81.76;98766.81;110309;1245;67807;-66
2022/01/19 05:09:26;;;;;;;26.20;12.10;;;;;;;-11.44;82.61;98762.67;110167;1247;69586;-66
2022/01/19 05:14:46;;;;;;;19.50;12.20;;;;;;;-11.35;82.12;98756.11;109954;1250;59684;-66
2022/01/19 05:17:16;;;;;;;21.20;11.80;;;;;;;-11.29;82.04;98758.65;110362;1247;71545;-66
2022/01/19 05:19:46;;;;;;;46.70;18.00;;;;;;;-11.29;82.08;98757.98;110172;1247;68608;-66
2022/01/19 05:22:15;;;;;;;24.70;12.60;;;;;;;-11.31;82.52;98756.59;110003;1248;69308;-67
2022/01/19 05:25:09;;;;;;;16.90;9.30;;;;;;;-11.35;82.52;98751.75;110113;1247;59729;-65
2022/01/19 05:27:52;;;;;;;21.90;11.70;;;;;;;-11.36;82.26;98747.67;110370;1247;59746;-65
2022/01/19 05:30:22;;;;;;;14.20;8.00;;;;;;;-11.37;82.30;98741.05;110066;1247;71540;-65
2022/01/19 05:32:52;;;;;;;20.10;10.80;;;;;;;-11.36;82.08;98742.13;110160;1247;67697;-67
2022/01/19 05:35:21;;;;;;;9.70;6.30;;;;;;;-11.34;82.07;98745.21;110048;1247;69593;-65
2022/01/19 05:38:10;;;;;;;15.10;8.40;;;;;;;-11.30;81.98;98748.71;110094;1247;59726;-65
2022/01/19 05:40:50;;;;;;;15.70;8.90;;;;;;;-11.26;81.80;98746.48;110019;1247;59741;-65
2022/01/19 05:43:19;;;;;;;19.40;10.30;;;;;;;-11.27;82.01;98745.11;110097;1248;71284;-64
2022/01/19 05:45:50;;;;;;;17.00;9.60;;;;;;;-11.29;82.22;98750.43;110071;1248;67385;-63
2022/01/19 05:48:22;;;;;;;17.50;9.70;;;;;;;-11.29;82.38;98757.67;110183;1247;69741;-64
2022/01/19 05:50:54;;;;;;;29.10;13.90;;;;;;;-11.30;81.95;98752.06;110053;1246;59753;-65
2022/01/19 05:53:28;;;;;;;32.00;13.30;;;;;;;-11.32;81.51;98744.09;110027;1247;59698;-66
2022/01/19 05:56:06;;;;;;;18.50;9.40;;;;;;;-11.34;81.56;98752.59;110067;1247;70807;-64
2022/01/19 05:58:48;;;;;;;24.40;10.60;;;;;;;-11.34;81.65;98757.99;110062;1247;68020;-66
2022/01/19 06:01:18;;;;;;;18.90;10.60;;;;;;;-11.33;81.78;98755.67;110051;1247;68644;-64
2022/01/19 06:03:50;;;;;;;21.50;12.30;;;;;;;-11.30;81.92;98755.45;110099;1247;60030;-65
2022/01/19 06:06:39;;;;;;;20.00;11.60;;;;;;;-11.26;81.88;98754.23;110132;1247;59677;-66
2022/01/19 06:12:15;;;;;;;15.00;8.50;;;;;;;-11.17;81.75;98765.48;110127;1247;69311;-66
2022/01/19 06:14:45;;;;;;;15.00;8.70;;;;;;;-11.13;81.81;98766.95;110106;1248;68648;-66
2022/01/19 06:17:15;;;;;;;14.10;7.70;;;;;;;-11.08;81.64;98765.61;110179;1247;60039;-66
2022/01/19 06:19:47;;;;;;;17.20;10.60;;;;;;;-11.03;81.72;98765.95;110121;1247;60206;-65
2022/01/19 06:22:18;;;;;;;32.50;17.70;;;;;;;-10.99;81.84;98763.40;110107;1247;72154;-64
2022/01/19 06:24:49;;;;;;;37.50;23.20;;;;;;;-10.96;81.55;98765.66;110279;1245;68746;-64
2022/01/19 06:27:19;;;;;;;44.90;25.00;;;;;;;-10.99;80.50;98772.46;110093;1247;68536;-63
2022/01/19 06:29:50;;;;;;;45.60;24.30;;;;;;;-11.04;79.87;98778.88;110168;1248;60110;-63
2022/01/19 06:32:32;;;;;;;24.40;15.00;;;;;;;-11.12;79.61;98780.80;110157;1247;59712;-64
2022/01/19 06:35:08;;;;;;;27.70;16.40;;;;;;;-11.15;79.84;98782.36;110301;1247;71572;-63
2022/01/19 06:38:07;;;;;;;30.10;14.50;;;;;;;-11.18;79.84;98780.77;110351;1246;67641;-63
2022/01/19 06:41:00;;;;;;;26.40;12.30;;;;;;;-11.19;79.85;98786.95;110060;1247;69186;-64
2022/01/19 06:43:30;;;;;;;17.60;9.40;;;;;;;-11.18;80.02;98788.34;110151;1247;59906;-62
2022/01/19 06:46:07;;;;;;;15.90;9.60;;;;;;;-11.14;80.06;98787.11;110118;1247;59692;-65
2022/01/19 06:48:41;;;;;;;15.90;9.10;;;;;;;-11.09;80.27;98789.50;110224;1244;70235;-64
2022/01/19 06:51:13;;;;;;;51.40;28.30;;;;;;;-10.96;80.16;98795.16;110077;1247;68397;-64
2022/01/19 06:53:49;;;;;;;43.40;24.50;;;;;;;-10.86;80.24;98793.32;110221;1245;70113;-64
2022/01/19 06:56:21;;;;;;;28.90;15.70;;;;;;;-10.78;80.20;98790.23;110279;1245;59771;-64
2022/01/19 06:58:58;;;;;;;23.40;13.50;;;;;;;-10.64;80.27;98792.36;110304;1247;59647;-63
2022/01/19 07:01:35;;;;;;;21.10;11.90;;;;;;;-10.49;80.41;98800.27;109923;1247;667957;-64
2022/01/19 07:04:14;;;;;;;19.20;12.10;;;;;;;-10.32;80.52;98808.73;110317;1246;68642;-64
2022/01/19 07:06:44;;;;;;;21.10;12.10;;;;;;;-10.11;80.17;98812.55;110163;1246;69527;-64
2022/01/19 07:09:14;;;;;;;36.60;20.30;;;;;;;-9.91;79.78;98816.21;110334;1244;59754;-63
2022/01/19 07:12:02;;;;;;;81.70;43.60;;;;;;;-9.67;77.86;98821.45;110182;1245;59738;-65
2022/01/19 07:14:34;;;;;;;49.90;28.10;;;;;;;-9.41;77.44;98829.66;110100;1247;71794;-65
2022/01/19 07:17:04;;;;;;;84.00;45.00;;;;;;;-9.02;77.05;98825.66;110110;1248;68130;-64
2022/01/19 07:19:34;;;;;;;90.00;40.70;;;;;;;-8.60;75.66;98816.98;110197;1247;69374;-64
2022/01/19 07:22:04;;;;;;;43.50;24.00;;;;;;;-8.05;77.02;98813.02;110156;1245;59729;-64
2022/01/19 07:24:33;;;;;;;45.90;24.30;;;;;;;-7.40;75.90;98814.11;110280;1246;59635;-63
2022/01/19 07:27:03;;;;;;;72.40;38.60;;;;;;;-6.79;75.37;98805.14;110333;1245;70984;-65
2022/01/19 07:29:33;;;;;;;85.80;42.70;;;;;;;-6.19;75.04;98805.48;109956;1250;67823;-64
2022/01/19 07:32:03;;;;;;;78.50;39.20;;;;;;;-5.64;73.70;98806.93;110080;1245;68708;-64
2022/01/19 07:34:32;;;;;;;60.20;33.10;;;;;;;-5.09;71.65;98802.90;110241;1246;59657;-64
2022/01/19 07:37:05;;;;;;;78.50;43.50;;;;;;;-4.47;71.09;98798.60;110421;1244;59685;-65
2022/01/19 07:39:35;;;;;;;80.40;46.80;;;;;;;-3.89;68.53;98798.38;110355;1244;71587;-64
2022/01/19 07:42:05;;;;;;;82.80;46.00;;;;;;;-3.26;64.99;98794.63;110416;1244;68671;-66
2022/01/19 07:45:12;;;;;;;81.40;47.70;;;;;;;-2.42;62.56;98795.04;110243;1244;68630;-65
2022/01/19 07:48:00;;;;;;;131.00;77.80;;;;;;;-1.85;58.69;98794.86;110307;1247;59659;-65
2022/01/19 07:50:48;;;;;;;184.90;114.00;;;;;;;-1.53;55.04;98793.78;110334;1244;59687;-65
2022/01/19 07:53:37;;;;;;;192.00;112.10;;;;;;;-1.44;52.27;98793.92;110051;1247;70729;-65
2022/01/19 07:56:29;;;;;;;145.70;90.60;;;;;;;-1.37;51.92;98793.56;109789;1247;69063;-64
2022/01/19 07:59:10;;;;;;;128.40;77.20;;;;;;;-0.93;52.15;98799.55;110369;1245;69524;-64
2022/01/19 08:01:58;;;;;;;167.70;104.50;;;;;;;-0.22;49.74;98796.21;110002;1247;59670;-66
2022/01/19 08:04:47;;;;;;;;;;;;;;;0.36;46.90;98789.71;110012;1248;59709;-66
2022/01/19 08:07:20;;;;;;;129.70;77.60;;;;;;;0.72;48.97;98781.59;110256;1246;71590;-66
2022/01/19 08:09:50;;;;;;;;;;;;;;;1.24;48.11;98781.80;110267;1246;68630;-68
2022/01/19 08:12:19;;;;;;;125.40;77.20;;;;;;;1.71;48.62;98780.25;110440;1247;69167;-65
2022/01/19 08:14:49;;;;;;;122.50;77.70;;;;;;;2.15;46.49;98771.29;110312;1247;59742;-63
2022/01/19 08:17:26;;;;;;;118.80;78.20;;;;;;;2.37;43.37;98763.34;110096;1246;59670;-65
2022/01/19 08:19:56;;;;;;;119.50;79.00;;;;;;;2.51;42.36;98766.15;110233;1248;72180;-66
2022/01/19 08:22:26;;;;;;;116.90;77.60;;;;;;;2.74;42.45;98773.45;110537;1246;68827;-61
2022/01/19 08:25:27;;;;;;;117.50;73.60;;;;;;;3.27;43.23;98760.83;109997;1247;68758;-64
2022/01/19 08:27:56;;;;;;;122.90;83.00;;;;;;;3.77;43.30;98761.05;110106;1247;59646;-64
2022/01/19 08:30:34;;;;;;;104.20;68.00;;;;;;;4.16;39.92;98758.35;110095;1250;59672;-67
2022/01/19 08:33:03;;;;;;;96.40;61.00;;;;;;;4.49;42.34;98757.83;110118;1247;71534;-69
2022/01/19 08:35:44;;;;;;;110.00;71.60;;;;;;;4.80;39.31;98754.94;110436;1245;68962;-67
2022/01/19 08:38:33;;;;;;;100.70;64.10;;;;;;;5.10;39.57;98756.48;110006;1248;70138;-66
2022/01/19 08:41:16;;;;;;;135.60;78.30;;;;;;;4.75;39.21;98762.64;110428;1246;59720;-67
2022/01/19 08:43:46;;;;;;;98.80;55.30;;;;;;;4.20;41.41;98768.96;110114;1247;59755;-68
2022/01/19 08:46:15;;;;;;;110.20;67.60;;;;;;;4.40;41.08;98762.05;110314;1247;72179;-67
2022/01/19 08:49:05;;;;;;;81.50;53.40;;;;;;;4.72;38.90;98770.69;109991;1247;69316;-65
2022/01/19 08:52:04;;;;;;;70.70;46.00;;;;;;;4.69;39.74;98777.85;109858;1248;69983;-66
2022/01/19 08:54:38;;;;;;;55.10;34.30;;;;;;;4.35;39.51;98777.02;110108;1248;59659;-66
2022/01/19 08:57:11;;;;;;;37.60;24.50;;;;;;;4.09;41.83;98771.99;110118;1247;59652;-67
2022/01/19 08:59:40;;;;;;;45.00;28.80;;;;;;;4.08;41.76;98776.49;110280;1247;71563;-66
2022/01/19 09:02:10;;;;;;;35.80;24.10;;;;;;;3.76;43.24;98771.61;110409;1246;69088;-65
2022/01/19 09:04:39;;;;;;;27.40;19.00;;;;;;;3.44;44.03;98775.09;110260;1246;69235;-66
2022/01/19 09:07:08;;;;;;;35.30;23.70;;;;;;;3.17;43.57;98771.90;110461;1246;59700;-68
2022/01/19 09:09:37;;;;;;;33.50;21.70;;;;;;;3.02;43.56;98762.91;110349;1247;59770;-64
2022/01/19 09:12:07;;;;;;;39.00;26.20;;;;;;;2.89;44.31;98756.64;109979;1248;71934;-68
2022/01/19 09:14:36;;;;;;;30.10;21.10;;;;;;;3.03;44.28;98752.04;110221;1247;69206;-63
2022/01/19 09:17:08;;;;;;;31.00;18.80;;;;;;;3.21;44.70;98755.27;110086;1247;69423;-65
2022/01/19 09:19:39;;;;;;;34.90;21.60;;;;;;;3.30;44.93;98750.41;110204;1247;59655;-67
2022/01/19 09:22:10;;;;;;;29.10;18.30;;;;;;;3.52;45.96;98750.10;110160;1247;59676;-65
2022/01/19 09:24:41;;;;;;;21.70;12.90;;;;;;;3.73;45.94;98744.94;110276;1245;71117;-67
2022/01/19 09:27:11;;;;;;;28.60;16.80;;;;;;;4.15;46.07;98744.58;110590;1244;69328;-66
2022/01/19 09:29:45;;;;;;;37.40;21.90;;;;;;;4.51;44.97;98743.98;110321;1247;68904;-64
2022/01/19 09:32:24;;;;;;;28.90;16.70;;;;;;;4.40;44.53;98751.35;110501;1244;59739;-67
2022/01/19 09:34:58;;;;;;;49.80;28.80;;;;;;;4.12;44.55;98746.73;110594;1245;59734;-69
2022/01/19 09:37:28;;;;;;;45.60;25.00;;;;;;;3.82;45.94;98738.50;110186;1247;71568;-64
2022/01/19 09:40:20;;;;;;;27.30;16.40;;;;;;;3.59;46.14;98735.61;110155;1246;68597;-65
2022/01/19 09:42:51;;;;;;;29.70;16.40;;;;;;;3.35;46.76;98734.64;110203;1247;68632;-65
2022/01/19 09:45:22;;;;;;;26.40;15.90;;;;;;;3.07;47.61;98729.73;110272;1247;59729;-65
2022/01/19 09:47:57;;;;;;;19.00;11.80;;;;;;;2.75;47.90;98724.21;110261;1247;59756;-66
2022/01/19 09:50:27;;;;;;;29.80;17.30;;;;;;;2.48;48.43;98719.58;110125;1247;71670;-69
2022/01/19 09:53:02;;;;;;;21.70;13.90;;;;;;;2.12;49.34;98717.16;110434;1246;67773;-64
2022/01/19 09:55:35;;;;;;;22.20;13.40;;;;;;;1.74;49.82;98722.12;110219;1247;70105;-65
2022/01/19 09:58:10;;;;;;;20.30;12.40;;;;;;;1.37;50.88;98718.92;109995;1247;59691;-65
2022/01/19 10:00:40;;;;;;;27.20;16.90;;;;;;;1.05;51.51;98714.40;110359;1247;59687;-69
2022/01/19 10:03:13;;;;;;;32.40;19.30;;;;;;;0.82;52.44;98715.73;110257;1247;70741;-65
2022/01/19 10:06:09;;;;;;;22.30;14.50;;;;;;;0.53;53.15;98719.02;110258;1247;68617;-70
2022/01/19 10:08:41;;;;;;;33.60;19.90;;;;;;;0.26;54.18;98715.55;110021;1247;68392;-69
2022/01/19 10:17:07;;;;;;;35.70;19.10;;;;;;;-0.12;55.31;98715.59;110119;1247;71536;-65
2022/01/19 10:19:43;;;;;;;26.90;17.00;;;;;;;-0.17;55.43;98710.67;110199;1247;68870;-70
2022/01/19 10:22:13;;;;;;;36.60;21.20;;;;;;;-0.16;55.96;98707.91;110277;1247;68853;-65
2022/01/19 10:24:58;;;;;;;26.20;16.30;;;;;;;-0.06;56.12;98706.62;110258;1247;59759;-66
2022/01/19 10:27:55;;;;;;;29.80;16.50;;;;;;;0.06;55.75;98700.84;110298;1247;59757;-64
2022/01/19 10:30:25;;;;;;;27.30;17.60;;;;;;;0.12;55.28;98691.86;110246;1247;70725;-69
2022/01/19 10:33:02;;;;;;;35.00;21.90;;;;;;;0.14;55.43;98690.30;110424;1246;67714;-65
2022/01/19 10:35:39;;;;;;;29.70;16.80;;;;;;;0.19;55.39;98692.47;110225;1248;69249;-65
2022/01/19 10:38:25;;;;;;;26.50;16.10;;;;;;;0.33;55.14;98693.52;110150;1247;60190;-69
2022/01/19 10:40:58;;;;;;;32.60;17.50;;;;;;;0.50;55.06;98687.16;110447;1247;59702;-65
2022/01/19 10:43:36;;;;;;;28.60;17.30;;;;;;;0.64;54.80;98682.34;110424;1245;70731;-65
2022/01/19 10:46:16;;;;;;;31.60;19.30;;;;;;;0.89;54.64;98683.05;110178;1246;67808;-69
2022/01/19 10:48:46;;;;;;;23.90;14.00;;;;;;;1.32;54.35;98692.02;110164;1244;69210;-66
2022/01/19 10:51:21;;;;;;;33.20;20.20;;;;;;;2.13;53.17;98684.10;110478;1245;59764;-70
2022/01/19 10:54:11;;;;;;;32.30;18.60;;;;;;;3.70;50.68;98677.38;110119;1245;59667;-66
2022/01/19 10:56:48;;;;;;;33.40;20.30;;;;;;;5.83;46.83;98680.66;110306;1247;71626;-65
2022/01/19 10:59:18;;;;;;;40.70;25.00;;;;;;;7.27;44.13;98677.38;110541;1244;67593;-64
2022/01/19 11:01:55;;;;;;;36.90;23.70;;;;;;;8.16;40.55;98669.40;110537;1244;69211;-64
2022/01/19 11:04:32;;;;;;;30.00;18.30;;;;;;;9.01;37.81;98663.67;110036;1245;59788;-69
2022/01/19 11:07:09;;;;;;;27.70;17.30;;;;;;;9.61;37.53;98663.80;110266;1246;59704;-65
2022/01/19 11:09:46;;;;;;;26.90;17.20;;;;;;;10.24;35.93;98655.40;110039;1247;71552;-66
2022/01/19 11:12:19;;;;;;;26.60;17.50;;;;;;;10.82;35.48;98654.80;110595;1244;68580;-63
2022/01/19 11:14:50;;;;;;;22.70;14.10;;;;;;;11.10;34.16;98654.64;110327;1245;70360;-68
2022/01/19 11:17:37;;;;;;;22.50;14.60;;;;;;;11.25;34.10;98641.47;110346;1245;59763;-66
2022/01/19 11:20:11;;;;;;;21.60;13.90;;;;;;;11.76;32.54;98634.38;110277;1247;59753;-64
2022/01/19 11:23:00;;;;;;;20.00;13.80;;;;;;;11.66;32.10;98628.83;110480;1244;71491;-70
2022/01/19 11:25:55;;;;;;;21.40;13.60;;;;;;;11.85;32.58;98626.86;110313;1244;68828;-65
2022/01/19 11:28:28;;;;;;;19.30;12.30;;;;;;;11.49;32.37;98625.95;110449;1244;69283;-65
2022/01/19 11:30:58;;;;;;;25.20;15.80;;;;;;;10.98;32.83;98620.27;110311;1245;59706;-67
2022/01/19 11:33:30;;;;;;;21.10;12.30;;;;;;;10.58;32.41;98617.71;110303;1247;59727;-66
2022/01/19 11:36:04;;;;;;;22.20;15.80;;;;;;;10.48;33.02;98613.23;110312;1244;71600;-64
2022/01/19 11:38:37;;;;;;;23.00;14.90;;;;;;;10.21;33.87;98606.27;110537;1244;68745;-65
2022/01/19 11:41:09;;;;;;;19.60;12.80;;;;;;;9.68;32.51;98600.27;110556;1244;69270;-63
2022/01/19 11:43:52;;;;;;;24.20;14.80;;;;;;;9.49;34.05;98598.07;110406;1244;59744;-65
2022/01/19 11:46:36;;;;;;;26.40;17.70;;;;;;;9.41;35.28;98595.36;110192;1245;60049;-64
2022/01/19 11:49:10;;;;;;;20.40;13.90;;;;;;;9.00;35.27;98597.15;110549;1244;70724;-65
2022/01/19 11:51:54;;;;;;;23.00;16.40;;;;;;;9.13;35.04;98594.95;110339;1244;68762;-65
2022/01/19 11:54:33;;;;;;;28.70;19.80;;;;;;;9.66;34.53;98590.25;110293;1245;67774;-66
2022/01/19 11:57:12;;;;;;;24.10;15.80;;;;;;;10.36;33.44;98582.82;110350;1244;59753;-71
2022/01/19 11:59:45;;;;;;;23.60;14.90;;;;;;;10.99;33.28;98580.11;110355;1245;59684;-65
2022/01/19 12:02:29;;;;;;;21.80;14.60;;;;;;;11.32;32.91;98582.23;110315;1247;70740;-65
2022/01/19 12:05:24;;;;;;;23.10;15.40;;;;;;;11.72;30.14;98579.71;110433;1245;68306;-71
2022/01/19 12:08:03;;;;;;;23.90;14.90;;;;;;;12.19;29.05;98581.14;110276;1244;68803;-65
2022/01/19 12:10:39;;;;;;;19.90;12.90;;;;;;;11.74;29.09;98574.94;110532;1244;59740;-65
2022/01/19 12:19:07;;;;;;;19.70;13.40;;;;;;;13.64;27.79;98567.38;110259;1247;67888;-66
2022/01/19 12:21:42;;;;;;;24.50;15.40;;;;;;;14.42;28.25;98572.91;110573;1244;68686;-67
2022/01/19 12:24:54;;;;;;;27.00;16.80;;;;;;;14.92;26.17;98569.15;110393;1245;59747;-65
2022/01/19 12:27:31;;;;;;;20.70;14.50;;;;;;;14.80;25.86;98569.22;110545;1244;59678;-70
2022/01/19 12:30:09;;;;;;;22.10;15.10;;;;;;;15.00;25.96;98571.42;110318;1246;71505;-67
2022/01/19 12:33:07;;;;;;;21.30;14.40;;;;;;;15.23;25.92;98564.42;110334;1247;67668;-65
2022/01/19 12:35:39;;;;;;;25.60;18.30;;;;;;;15.21;25.61;98561.98;110311;1246;68653;-72
2022/01/19 12:38:28;;;;;;;28.30;18.80;;;;;;;14.90;26.37;98567.59;110235;1247;59709;-64
2022/01/19 12:41:00;;;;;;;31.70;18.30;;;;;;;14.93;25.99;98563.31;110302;1244;59637;-65
2022/01/19 12:43:37;;;;;;;24.40;16.90;;;;;;;14.85;26.14;98561.83;110232;1245;70833;-71
2022/01/19 12:46:10;;;;;;;20.70;15.30;;;;;;;15.04;26.15;98555.48;110347;1247;68374;-65
2022/01/19 12:48:46;;;;;;;21.80;14.30;;;;;;;14.88;25.65;98553.35;110314;1247;69460;-72
2022/01/19 12:51:39;;;;;;;21.30;14.30;;;;;;;15.09;26.12;98549.48;110505;1244;59744;-66
2022/01/19 12:54:13;;;;;;;19.50;14.30;;;;;;;15.37;25.77;98545.66;110248;1245;59703;-70
2022/01/19 12:57:04;;;;;;;24.50;16.60;;;;;;;15.36;25.32;98540.84;110518;1244;70915;-67
2022/01/19 12:59:34;;;;;;;20.60;14.20;;;;;;;15.15;25.40;98539.45;110341;1247;67932;-71
2022/01/19 13:02:04;;;;;;;22.30;14.50;;;;;;;15.02;25.57;98538.06;110261;1245;69565;-66
2022/01/19 13:04:36;;;;;;;;;;;;;;;15.01;25.61;98532.55;110555;1244;59751;-67
2022/01/19 13:07:19;;;;;;;24.00;15.00;;;;;;;14.61;25.27;98533.13;110590;1244;59684;-65
2022/01/19 13:10:26;;;;;;;21.20;14.70;;;;;;;13.96;25.73;98531.17;110542;1244;71445;-69
2022/01/19 13:15:44;;;;;;;19.10;11.40;;;;;;;13.43;26.70;98521.32;110133;1247;69876;-70
2022/01/19 13:18:34;;;;;;;22.20;13.00;;;;;;;13.56;26.77;98516.40;110347;1244;59817;-64